Historyczne dane pomiarowe

Dodano dane terminowe – wersja testowa.

Dane z okresu 1951-2019

Wersja bazy: 1.34 [2019-03-16, lista zmian], aktualizacja planowana na 2019-04-15

Dane meteo z obszaru Polski uzyskane na podstawie danych udostępnionych przez Instytut Meteorologii i Gospodarki Wodnej – Państwowy Instytut Badawczy.

 

Wybierz Datę:    

       

TemperaturaWilgotnośćWiatrCiśnienieOpadyŚniegCzas trwania zjawisk
 Stacja t tx tn tng RH VA  wxwx mslp ppp RRR   cm mm wxwxwxwxwxwxwx
1967-04-17 13.9 19.6 8.3--- 3.7 4.0---- 0.0------------
1967-04-18 6.8 15.4 2.8--- 5.0 2.0---- 1.1------------
1967-04-19 2.7 7.2 -0.2--- 4.0 3.0---- 0.7------------
1967-04-20 10.6 15.5 1.8--- 3.0 4.7---- 0.0------------
1967-04-21 13.4 20.6 9.9--- 7.3 3.3---- 4.7------------
1967-04-22 2.8 11.6 0.9--- 8.0 1.7---- 13.5------------
1967-04-23 3.4 5.4 0.8--- 8.0 2.7---- 0.8------------
1967-04-24 2.1 3.5 1.3--- 8.0 3.3---- 1.1------------
1967-04-25 2.2 3.0 0.3--- 8.0 2.3---- 17.1------------
1967-04-26 4.2 5.4 2.9--- 8.0 1.3---- 0.7------------
1967-04-27 7.4 11.3 3.2--- 7.0 2.0---- 1.4------------
1967-04-28 7.5 8.3 6.8--- 8.0 2.0---- 0.4------------
1967-04-29 10.5 15.8 5.3--- 5.3 2.7---- 0.0------------
1967-04-30 10.0 16.3 5.8--- 1.7 2.7---- 0.0------------
1967-05-01 15.4 22.4 5.2--- 4.3 1.3---- 0.0------------
1967-05-02 15.7 22.8 10.8--- 5.0 1.0---- 5.5------------
1967-05-03 13.9 20.8 10.1--- 7.3 1.3---- 0.7------------
1967-05-04 5.9 12.7 4.3--- 8.0 2.3---- 10.2------------
1967-05-05 5.9 7.8 4.3--- 8.0 1.3---- 0.0------------
1967-05-06 11.0 16.9 4.3--- 6.0 1.0---- 0.0------------
1967-05-07 12.4 20.0 6.0--- 5.0 1.0---- 0.0------------
1967-05-08 15.6 21.7 10.0--- 3.0 1.0---- 0.0------------
1967-05-09 13.8 20.5 9.6--- 4.3 2.0---- 0.0------------
1967-05-10 14.9 20.7 6.8--- 3.7 1.3---- 0.0------------
1967-05-11 13.3 20.2 6.2--- 1.3 1.7---- 0.0------------
1967-05-12 14.2 22.4 4.9--- 0.0 1.7---- 0.0------------
1967-05-13 19.3 26.8 6.3--- 0.3 2.0---- 0.0------------
1967-05-14 20.7 26.5 11.0--- 1.0 2.0---- 0.0------------
1967-05-15 22.3 27.6 12.3--- 5.3 3.3---- 0.0------------
1967-05-16 20.9 26.3 18.4--- 5.3 2.7---- 0.2------------
205.2 ms

 

Źródłem pochodzenia danych jest Instytut Meteorologii i Gospodarki Wodnej – Państwowy Instytut Badawczy. Dane Instytutu Meteorologii i Gospodarki Wodnej – Państwowego Instytutu Badawczego zostały przetworzone.

Dane źródłowe można odnaleźć na stronie https://dane.imgw.pl